PWSweather.com
Personal Weather Stations
Station Observations
WAIROAHB
Wairoa, Northern Hawkes Bay -NZ 4108

WairoaNorthern Hawkes Bay -NZ 4108

Lat: -39.04516934, Lon: 177.4263989

Elevation: 156

Station Type: WS3083

http://wairoa.net/weather/index.htm

High Low Average
Temperature 75.0°F23.9°C 58.3°F14.6°C 66.2°F19.0°C
Dew Point 65.7°F18.7°C 58.0°F14.4°C 62.0°F16.7°C
Winds 9.8 mph 15.8 kmh Calm Calm 3.0 mph SSE4.8 kmh SSE
Wind Gusts 15.2 mph24.5 kmh -- 8.0 mph12.9 kmh
Humidity 99% 65% 87%
Pressure 29.75 in1007.5 mb 29.66 in1004.4 mb -
Precipitation 0.06 in1.5 mm - -
Hour Temp Dew Point Humidity Winds Wind Gusts Pressure Precip Precip Rate Daily Precip Total
12:00 AM 59.4°F15.2°C 59.1°F15.1°C 99% 2.2 mph NW3.5 kmh NW 4.5 mph7.2 kmh 29.70 in1005.8 mb 0.00 in0.0 mm 0.00 in0.0 mm 0.00 in0.0 mm
12:10 AM 59.4°F15.2°C 59.1°F15.1°C 99% Calm Calm 3.8 mph6.1 kmh 29.70 in1005.8 mb 0.00 in0.0 mm 0.00 in0.0 mm 0.00 in0.0 mm
12:20 AM 59.4°F15.2°C 59.1°F15.1°C 99% Calm Calm -- 29.70 in1005.8 mb 0.00 in0.0 mm 0.00 in0.0 mm 0.00 in0.0 mm
12:30 AM 59.4°F15.2°C 59.1°F15.1°C 99% Calm Calm -- 29.69 in1005.4 mb 0.00 in0.0 mm 0.00 in0.0 mm 0.00 in0.0 mm
12:40 AM 59.4°F15.2°C 59.1°F15.1°C 99% Calm Calm -- 29.69 in1005.4 mb 0.00 in0.0 mm 0.00 in0.0 mm 0.00 in0.0 mm
12:50 AM 59.4°F15.2°C 59.1°F15.1°C 99% Calm Calm -- 29.67 in1004.7 mb 0.00 in0.0 mm 0.00 in0.0 mm 0.00 in0.0 mm
01:00 AM 59.2°F15.1°C 58.9°F14.9°C 99% Calm Calm -- 29.67 in1004.7 mb 0.00 in0.0 mm 0.00 in0.0 mm 0.00 in0.0 mm
01:10 AM 59.2°F15.1°C 58.9°F14.9°C 99% 3.1 mph NNW5.0 kmh NNW 7.6 mph12.2 kmh 29.67 in1004.7 mb 0.00 in0.0 mm 0.00 in0.0 mm 0.00 in0.0 mm
01:20 AM 59.2°F15.1°C 58.9°F14.9°C 99% 6.9 mph NNW11.1 kmh NNW 9.8 mph15.8 kmh 29.68 in1005.1 mb 0.00 in0.0 mm 0.00 in0.0 mm 0.00 in0.0 mm
01:30 AM 59.4°F15.2°C 59.1°F15.1°C 99% 1.6 mph N2.6 kmh N 9.2 mph14.8 kmh 29.67 in1004.7 mb 0.00 in0.0 mm 0.00 in0.0 mm 0.00 in0.0 mm
01:40 AM 59.5°F15.3°C 59.3°F15.2°C 99% 1.6 mph N2.6 kmh N 6.0 mph9.7 kmh 29.68 in1005.1 mb 0.00 in0.0 mm 0.00 in0.0 mm 0.00 in0.0 mm
01:50 AM 59.5°F15.3°C 59.3°F15.2°C 99% 4.5 mph N7.2 kmh N 6.9 mph11.1 kmh 29.67 in1004.7 mb 0.00 in0.0 mm 0.00 in0.0 mm 0.00 in0.0 mm
02:00 AM 59.5°F15.3°C 59.3°F15.2°C 99% 5.4 mph N8.7 kmh N 8.3 mph13.4 kmh 29.67 in1004.7 mb 0.00 in0.0 mm 0.00 in0.0 mm 0.00 in0.0 mm
02:10 AM 59.4°F15.2°C 59.1°F15.1°C 99% 3.8 mph N6.1 kmh N 9.2 mph14.8 kmh 29.68 in1005.1 mb 0.00 in0.0 mm 0.00 in0.0 mm 0.00 in0.0 mm
02:20 AM 59.4°F15.2°C 59.1°F15.1°C 99% 3.1 mph N5.0 kmh N 6.9 mph11.1 kmh 29.67 in1004.7 mb 0.00 in0.0 mm 0.00 in0.0 mm 0.00 in0.0 mm
02:30 AM 59.4°F15.2°C 59.1°F15.1°C 99% 4.5 mph N7.2 kmh N 6.0 mph9.7 kmh 29.67 in1004.7 mb 0.00 in0.0 mm 0.00 in0.0 mm 0.00 in0.0 mm
02:40 AM 59.2°F15.1°C 58.9°F14.9°C 99% 4.5 mph NNW7.2 kmh NNW 7.6 mph12.2 kmh 29.66 in1004.4 mb 0.00 in0.0 mm 0.00 in0.0 mm 0.00 in0.0 mm
02:50 AM 59.0°F15.0°C 58.7°F14.8°C 99% 6.0 mph N9.7 kmh N 9.2 mph14.8 kmh 29.66 in1004.4 mb 0.00 in0.0 mm 0.00 in0.0 mm 0.00 in0.0 mm
03:00 AM 58.8°F14.9°C 58.6°F14.8°C 99% 3.1 mph N5.0 kmh N 7.6 mph12.2 kmh 29.66 in1004.4 mb 0.00 in0.0 mm 0.00 in0.0 mm 0.00 in0.0 mm
03:10 AM 58.8°F14.9°C 58.6°F14.8°C 99% 4.5 mph N7.2 kmh N 7.6 mph12.2 kmh 29.66 in1004.4 mb 0.00 in0.0 mm 0.00 in0.0 mm 0.00 in0.0 mm
03:20 AM 58.8°F14.9°C 58.6°F14.8°C 99% 3.1 mph NNW5.0 kmh NNW 6.0 mph9.7 kmh 29.66 in1004.4 mb 0.00 in0.0 mm 0.00 in0.0 mm 0.00 in0.0 mm
03:30 AM 58.8°F14.9°C 58.6°F14.8°C 99% 3.8 mph N6.1 kmh N 8.3 mph13.4 kmh 29.67 in1004.7 mb 0.00 in0.0 mm 0.00 in0.0 mm 0.00 in0.0 mm
03:40 AM 58.8°F14.9°C 58.6°F14.8°C 99% 0.7 mph N1.1 kmh N 9.2 mph14.8 kmh 29.67 in1004.7 mb 0.00 in0.0 mm 0.00 in0.0 mm 0.00 in0.0 mm
03:50 AM 58.8°F14.9°C 58.6°F14.8°C 99% 3.8 mph NNW6.1 kmh NNW 6.0 mph9.7 kmh 29.66 in1004.4 mb 0.00 in0.0 mm 0.00 in0.0 mm 0.00 in0.0 mm
04:00 AM 58.8°F14.9°C 58.6°F14.8°C 99% 1.6 mph NNW2.6 kmh NNW 5.4 mph8.7 kmh 29.67 in1004.7 mb 0.00 in0.0 mm 0.00 in0.0 mm 0.00 in0.0 mm
04:10 AM 58.8°F14.9°C 58.6°F14.8°C 99% 0.7 mph NNE1.1 kmh NNE 3.8 mph6.1 kmh 29.67 in1004.7 mb 0.00 in0.0 mm 0.00 in0.0 mm 0.00 in0.0 mm
04:20 AM 58.3°F14.6°C 58.0°F14.4°C 99% Calm Calm 3.8 mph6.1 kmh 29.67 in1004.7 mb 0.00 in0.0 mm 0.00 in0.0 mm 0.00 in0.0 mm
04:30 AM 58.3°F14.6°C 58.0°F14.4°C 99% 0.7 mph N1.1 kmh N 3.1 mph5.0 kmh 29.66 in1004.4 mb 0.00 in0.0 mm 0.00 in0.0 mm 0.00 in0.0 mm
04:40 AM 58.8°F14.9°C 58.6°F14.8°C 99% 2.2 mph NNW3.5 kmh NNW 3.8 mph6.1 kmh 29.67 in1004.7 mb 0.00 in0.0 mm 0.00 in0.0 mm 0.00 in0.0 mm
04:50 AM 58.8°F14.9°C 58.6°F14.8°C 99% 1.6 mph N2.6 kmh N 5.4 mph8.7 kmh 29.68 in1005.1 mb 0.00 in0.0 mm 0.00 in0.0 mm 0.00 in0.0 mm
05:00 AM 58.3°F14.6°C 58.0°F14.4°C 99% Calm Calm 3.8 mph6.1 kmh 29.67 in1004.7 mb 0.00 in0.0 mm 0.00 in0.0 mm 0.00 in0.0 mm
05:10 AM 58.3°F14.6°C 58.0°F14.4°C 99% Calm Calm 3.8 mph6.1 kmh 29.68 in1005.1 mb 0.00 in0.0 mm 0.00 in0.0 mm 0.00 in0.0 mm
05:20 AM 58.3°F14.6°C 58.0°F14.4°C 99% Calm Calm -- 29.67 in1004.7 mb 0.00 in0.0 mm 0.00 in0.0 mm 0.00 in0.0 mm
05:30 AM 58.8°F14.9°C 58.6°F14.8°C 99% 4.5 mph N7.2 kmh N 6.0 mph9.7 kmh 29.68 in1005.1 mb 0.00 in0.0 mm 0.00 in0.0 mm 0.00 in0.0 mm
05:40 AM 58.8°F14.9°C 58.6°F14.8°C 99% 3.8 mph N6.1 kmh N 6.0 mph9.7 kmh 29.67 in1004.7 mb 0.00 in0.0 mm 0.00 in0.0 mm 0.00 in0.0 mm
05:50 AM 59.7°F15.4°C 59.5°F15.3°C 99% 3.1 mph N5.0 kmh N 6.0 mph9.7 kmh 29.68 in1005.1 mb 0.00 in0.0 mm 0.00 in0.0 mm 0.00 in0.0 mm
06:00 AM 60.4°F15.8°C 60.2°F15.7°C 99% 3.8 mph N6.1 kmh N 6.9 mph11.1 kmh 29.68 in1005.1 mb 0.00 in0.0 mm 0.00 in0.0 mm 0.00 in0.0 mm
06:10 AM 60.3°F15.7°C 60.0°F15.6°C 99% 3.1 mph N5.0 kmh N 6.9 mph11.1 kmh 29.69 in1005.4 mb 0.00 in0.0 mm 0.00 in0.0 mm 0.00 in0.0 mm
06:20 AM 60.8°F16.0°C 60.2°F15.7°C 98% 4.5 mph NNW7.2 kmh NNW 6.9 mph11.1 kmh 29.70 in1005.8 mb 0.00 in0.0 mm 0.00 in0.0 mm 0.00 in0.0 mm
06:30 AM 60.8°F16.0°C 60.2°F15.7°C 98% 2.2 mph N3.5 kmh N 6.9 mph11.1 kmh 29.69 in1005.4 mb 0.00 in0.0 mm 0.00 in0.0 mm 0.00 in0.0 mm
06:40 AM 60.8°F16.0°C 60.2°F15.7°C 98% 1.6 mph NNW2.6 kmh NNW 4.5 mph7.2 kmh 29.70 in1005.8 mb 0.00 in0.0 mm 0.00 in0.0 mm 0.00 in0.0 mm
06:50 AM 61.0°F16.1°C 60.4°F15.8°C 98% 2.2 mph NNW3.5 kmh NNW 4.5 mph7.2 kmh 29.70 in1005.8 mb 0.00 in0.0 mm 0.00 in0.0 mm 0.00 in0.0 mm
07:00 AM 62.1°F16.7°C 61.5°F16.4°C 98% 3.8 mph NNW6.1 kmh NNW 6.0 mph9.7 kmh 29.70 in1005.8 mb 0.00 in0.0 mm 0.00 in0.0 mm 0.00 in0.0 mm
07:10 AM 62.4°F16.9°C 61.3°F16.3°C 96% 1.6 mph NW2.6 kmh NW 6.0 mph9.7 kmh 29.70 in1005.8 mb 0.00 in0.0 mm 0.00 in0.0 mm 0.00 in0.0 mm
07:20 AM 62.2°F16.8°C 60.8°F16.0°C 95% 2.2 mph N3.5 kmh N 6.9 mph11.1 kmh 29.71 in1006.1 mb 0.00 in0.0 mm 0.00 in0.0 mm 0.00 in0.0 mm
07:30 AM 62.2°F16.8°C 60.8°F16.0°C 95% 3.1 mph NE5.0 kmh NE 6.0 mph9.7 kmh 29.71 in1006.1 mb 0.00 in0.0 mm 0.00 in0.0 mm 0.00 in0.0 mm
07:40 AM 63.0°F17.2°C 61.2°F16.2°C 94% 1.6 mph N2.6 kmh N 4.5 mph7.2 kmh 29.71 in1006.1 mb 0.00 in0.0 mm 0.00 in0.0 mm 0.00 in0.0 mm
07:50 AM 64.0°F17.8°C 62.0°F16.7°C 93% Calm Calm 3.8 mph6.1 kmh 29.70 in1005.8 mb 0.00 in0.0 mm 0.00 in0.0 mm 0.00 in0.0 mm
08:00 AM 65.1°F18.4°C 62.8°F17.1°C 92% Calm Calm 0.7 mph1.1 kmh 29.70 in1005.8 mb 0.00 in0.0 mm 0.00 in0.0 mm 0.00 in0.0 mm
08:30 AM 69.4°F20.8°C 64.1°F17.8°C 83% Calm Calm 3.1 mph5.0 kmh 29.70 in1005.8 mb 0.01 in0.3 mm 0.02 in0.5 mm 0.01 in0.3 mm
08:40 AM 72.0°F22.2°C 63.6°F17.6°C 75% 2.2 mph ESE3.5 kmh ESE 5.4 mph8.7 kmh 29.70 in1005.8 mb 0.01 in0.3 mm 0.00 in0.0 mm 0.01 in0.3 mm
08:50 AM 70.5°F21.4°C 61.9°F16.6°C 74% 2.2 mph ESE3.5 kmh ESE 6.0 mph9.7 kmh 29.71 in1006.1 mb 0.01 in0.3 mm 0.00 in0.0 mm 0.01 in0.3 mm
09:00 AM 68.2°F20.1°C 62.5°F16.9°C 82% 3.8 mph ESE6.1 kmh ESE 6.0 mph9.7 kmh 29.72 in1006.4 mb 0.01 in0.3 mm 0.00 in0.0 mm 0.01 in0.3 mm
09:10 AM 67.5°F19.7°C 63.2°F17.3°C 86% 2.2 mph E3.5 kmh E 6.0 mph9.7 kmh 29.72 in1006.4 mb 0.00 in0.0 mm 0.00 in0.0 mm 0.01 in0.3 mm
09:20 AM 67.1°F19.5°C 62.8°F17.1°C 86% 4.5 mph ESE7.2 kmh ESE 9.2 mph14.8 kmh 29.73 in1006.8 mb 0.00 in0.0 mm 0.00 in0.0 mm 0.01 in0.3 mm
09:30 AM 66.2°F19.0°C 61.9°F16.6°C 86% 3.8 mph SE6.1 kmh SE 9.8 mph15.8 kmh 29.73 in1006.8 mb 0.00 in0.0 mm 0.00 in0.0 mm 0.01 in0.3 mm
09:40 AM 66.7°F19.3°C 63.1°F17.3°C 88% 1.6 mph E2.6 kmh E 6.0 mph9.7 kmh 29.72 in1006.4 mb 0.00 in0.0 mm 0.00 in0.0 mm 0.01 in0.3 mm
09:50 AM 67.5°F19.7°C 63.2°F17.3°C 86% 1.6 mph SE2.6 kmh SE 6.0 mph9.7 kmh 29.72 in1006.4 mb 0.00 in0.0 mm 0.00 in0.0 mm 0.01 in0.3 mm
10:00 AM 68.7°F20.4°C 63.7°F17.6°C 84% 5.4 mph SSE8.7 kmh SSE 8.3 mph13.4 kmh 29.73 in1006.8 mb 0.00 in0.0 mm 0.00 in0.0 mm 0.01 in0.3 mm
10:10 AM 70.3°F21.3°C 64.3°F17.9°C 81% 4.5 mph SE7.2 kmh SE 9.2 mph14.8 kmh 29.73 in1006.8 mb 0.00 in0.0 mm 0.00 in0.0 mm 0.01 in0.3 mm
10:20 AM 70.5°F21.4°C 63.7°F17.6°C 79% 5.4 mph S8.7 kmh S 9.2 mph14.8 kmh 29.73 in1006.8 mb 0.00 in0.0 mm 0.00 in0.0 mm 0.01 in0.3 mm
10:30 AM 69.4°F20.8°C 64.1°F17.8°C 83% 1.6 mph SE2.6 kmh SE 9.2 mph14.8 kmh 29.73 in1006.8 mb 0.00 in0.0 mm 0.00 in0.0 mm 0.01 in0.3 mm
10:40 AM 70.0°F21.1°C 64.3°F17.9°C 82% 3.8 mph ESE6.1 kmh ESE 13.0 mph20.9 kmh 29.73 in1006.8 mb 0.00 in0.0 mm 0.00 in0.0 mm 0.01 in0.3 mm
10:50 AM 71.4°F21.9°C 65.7°F18.7°C 82% 4.5 mph SE7.2 kmh SE 11.4 mph18.3 kmh 29.73 in1006.8 mb 0.00 in0.0 mm 0.00 in0.0 mm 0.01 in0.3 mm
11:00 AM 72.0°F22.2°C 65.1°F18.4°C 79% 3.8 mph SE6.1 kmh SE 13.6 mph21.9 kmh 29.73 in1006.8 mb 0.00 in0.0 mm 0.00 in0.0 mm 0.01 in0.3 mm
11:10 AM 72.1°F22.3°C 63.8°F17.7°C 75% 5.4 mph SE8.7 kmh SE 14.5 mph23.3 kmh 29.73 in1006.8 mb 0.00 in0.0 mm 0.00 in0.0 mm 0.01 in0.3 mm
11:20 AM 72.1°F22.3°C 62.6°F17.0°C 72% 6.9 mph SE11.1 kmh SE 9.8 mph15.8 kmh 29.73 in1006.8 mb 0.00 in0.0 mm 0.00 in0.0 mm 0.01 in0.3 mm
11:30 AM 70.9°F21.6°C 62.6°F17.0°C 75% 3.8 mph SSE6.1 kmh SSE 9.8 mph15.8 kmh 29.73 in1006.8 mb 0.00 in0.0 mm 0.00 in0.0 mm 0.01 in0.3 mm
11:40 AM 70.9°F21.6°C 63.3°F17.4°C 77% 4.5 mph NW7.2 kmh NW 12.1 mph19.5 kmh 29.72 in1006.4 mb 0.00 in0.0 mm 0.00 in0.0 mm 0.01 in0.3 mm
11:50 AM 72.0°F22.2°C 64.0°F17.8°C 76% 6.0 mph WSW9.7 kmh WSW 11.4 mph18.3 kmh 29.72 in1006.4 mb 0.00 in0.0 mm 0.00 in0.0 mm 0.01 in0.3 mm
12:00 PM 72.1°F22.3°C 63.4°F17.4°C 74% 5.4 mph SE8.7 kmh SE 9.8 mph15.8 kmh 29.72 in1006.4 mb 0.00 in0.0 mm 0.00 in0.0 mm 0.01 in0.3 mm
12:10 PM 72.1°F22.3°C 63.4°F17.4°C 74% 4.5 mph SE7.2 kmh SE 13.0 mph20.9 kmh 29.72 in1006.4 mb 0.00 in0.0 mm 0.00 in0.0 mm 0.01 in0.3 mm
12:20 PM 72.1°F22.3°C 63.8°F17.7°C 75% 6.0 mph SE9.7 kmh SE 10.7 mph17.2 kmh 29.72 in1006.4 mb 0.00 in0.0 mm 0.00 in0.0 mm 0.01 in0.3 mm
12:30 PM 72.7°F22.6°C 63.9°F17.7°C 74% 5.4 mph SE8.7 kmh SE 12.1 mph19.5 kmh 29.71 in1006.1 mb 0.00 in0.0 mm 0.00 in0.0 mm 0.01 in0.3 mm
12:40 PM 72.7°F22.6°C 63.6°F17.6°C 73% 5.4 mph SE8.7 kmh SE 11.4 mph18.3 kmh 29.71 in1006.1 mb 0.00 in0.0 mm 0.00 in0.0 mm 0.01 in0.3 mm
12:50 PM 72.7°F22.6°C 62.4°F16.9°C 70% 6.9 mph SE11.1 kmh SE 10.7 mph17.2 kmh 29.71 in1006.1 mb 0.00 in0.0 mm 0.00 in0.0 mm 0.01 in0.3 mm
01:00 PM 72.7°F22.6°C 62.4°F16.9°C 70% 6.0 mph SE9.7 kmh SE 10.7 mph17.2 kmh 29.71 in1006.1 mb 0.00 in0.0 mm 0.00 in0.0 mm 0.01 in0.3 mm
01:10 PM 72.1°F22.3°C 61.4°F16.3°C 69% 6.9 mph NNW11.1 kmh NNW 11.4 mph18.3 kmh 29.71 in1006.1 mb 0.00 in0.0 mm 0.00 in0.0 mm 0.01 in0.3 mm
01:20 PM 73.2°F22.9°C 62.1°F16.7°C 68% 5.4 mph E8.7 kmh E 13.6 mph21.9 kmh 29.71 in1006.1 mb 0.00 in0.0 mm 0.00 in0.0 mm 0.01 in0.3 mm
01:30 PM 72.7°F22.6°C 62.0°F16.7°C 69% 6.0 mph E9.7 kmh E 11.4 mph18.3 kmh 29.71 in1006.1 mb 0.00 in0.0 mm 0.00 in0.0 mm 0.01 in0.3 mm
01:40 PM 72.1°F22.3°C 62.2°F16.8°C 71% 6.0 mph SE9.7 kmh SE 11.4 mph18.3 kmh 29.72 in1006.4 mb 0.00 in0.0 mm 0.00 in0.0 mm 0.01 in0.3 mm
01:50 PM 71.8°F22.1°C 62.7°F17.1°C 73% 6.0 mph WSW9.7 kmh WSW 11.4 mph18.3 kmh 29.70 in1005.8 mb 0.00 in0.0 mm 0.00 in0.0 mm 0.01 in0.3 mm
02:00 PM 72.1°F22.3°C 62.6°F17.0°C 72% 7.6 mph WSW12.2 kmh WSW 10.7 mph17.2 kmh 29.71 in1006.1 mb 0.00 in0.0 mm 0.00 in0.0 mm 0.01 in0.3 mm
02:10 PM 73.2°F22.9°C 63.7°F17.6°C 72% 6.9 mph N11.1 kmh N 10.7 mph17.2 kmh 29.71 in1006.1 mb 0.00 in0.0 mm 0.00 in0.0 mm 0.01 in0.3 mm
02:20 PM 73.6°F23.1°C 62.8°F17.1°C 69% 9.2 mph SSE14.8 kmh SSE 12.1 mph19.5 kmh 29.70 in1005.8 mb 0.00 in0.0 mm 0.00 in0.0 mm 0.01 in0.3 mm
02:30 PM 73.6°F23.1°C 63.6°F17.6°C 71% 6.0 mph WNW9.7 kmh WNW 13.0 mph20.9 kmh 29.70 in1005.8 mb 0.00 in0.0 mm 0.00 in0.0 mm 0.01 in0.3 mm
02:40 PM 73.4°F23.0°C 63.1°F17.3°C 70% 7.6 mph SSE12.2 kmh SSE 13.6 mph21.9 kmh 29.70 in1005.8 mb 0.00 in0.0 mm 0.00 in0.0 mm 0.01 in0.3 mm
02:50 PM 75.0°F23.9°C 63.4°F17.4°C 67% 3.1 mph SE5.0 kmh SE 11.4 mph18.3 kmh 29.70 in1005.8 mb 0.00 in0.0 mm 0.00 in0.0 mm 0.01 in0.3 mm
03:00 PM 75.0°F23.9°C 62.9°F17.2°C 66% 4.5 mph S7.2 kmh S 11.4 mph18.3 kmh 29.70 in1005.8 mb 0.00 in0.0 mm 0.00 in0.0 mm 0.01 in0.3 mm
03:10 PM 75.0°F23.9°C 62.5°F16.9°C 65% 5.4 mph WNW8.7 kmh WNW 11.4 mph18.3 kmh 29.70 in1005.8 mb 0.00 in0.0 mm 0.00 in0.0 mm 0.01 in0.3 mm
03:20 PM 74.7°F23.7°C 62.6°F17.0°C 66% 6.0 mph S9.7 kmh S 9.8 mph15.8 kmh 29.70 in1005.8 mb 0.00 in0.0 mm 0.00 in0.0 mm 0.01 in0.3 mm
03:30 PM 74.3°F23.5°C 64.7°F18.2°C 72% 3.1 mph WSW5.0 kmh WSW 13.0 mph20.9 kmh 29.71 in1006.1 mb 0.00 in0.0 mm 0.00 in0.0 mm 0.01 in0.3 mm
03:40 PM 74.3°F23.5°C 65.1°F18.4°C 73% 5.4 mph W8.7 kmh W 13.6 mph21.9 kmh 29.71 in1006.1 mb 0.00 in0.0 mm 0.00 in0.0 mm 0.01 in0.3 mm
03:50 PM 74.8°F23.8°C 64.4°F18.0°C 70% 4.5 mph SE7.2 kmh SE 11.4 mph18.3 kmh 29.71 in1006.1 mb 0.00 in0.0 mm 0.00 in0.0 mm 0.01 in0.3 mm
04:00 PM 74.7°F23.7°C 64.7°F18.2°C 71% 6.9 mph SE11.1 kmh SE 14.5 mph23.3 kmh 29.71 in1006.1 mb 0.00 in0.0 mm 0.00 in0.0 mm 0.01 in0.3 mm
04:10 PM 74.3°F23.5°C 63.5°F17.5°C 69% 5.4 mph SE8.7 kmh SE 13.0 mph20.9 kmh 29.71 in1006.1 mb 0.00 in0.0 mm 0.00 in0.0 mm 0.01 in0.3 mm
04:20 PM 73.9°F23.3°C 63.6°F17.6°C 70% 5.4 mph ENE8.7 kmh ENE 14.5 mph23.3 kmh 29.70 in1005.8 mb 0.00 in0.0 mm 0.00 in0.0 mm 0.01 in0.3 mm
04:30 PM 73.6°F23.1°C 63.6°F17.6°C 71% 8.3 mph NNW13.4 kmh NNW 15.2 mph24.5 kmh 29.71 in1006.1 mb 0.00 in0.0 mm 0.00 in0.0 mm 0.01 in0.3 mm
04:40 PM 73.0°F22.8°C 63.1°F17.3°C 71% 9.8 mph WSW15.8 kmh WSW 13.0 mph20.9 kmh 29.71 in1006.1 mb 0.00 in0.0 mm 0.00 in0.0 mm 0.01 in0.3 mm
04:50 PM 72.1°F22.3°C 62.2°F16.8°C 71% 6.9 mph E11.1 kmh E 14.5 mph23.3 kmh 29.71 in1006.1 mb 0.00 in0.0 mm 0.00 in0.0 mm 0.01 in0.3 mm
05:00 PM 73.8°F23.2°C 64.2°F17.9°C 72% 6.0 mph SE9.7 kmh SE 15.2 mph24.5 kmh 29.71 in1006.1 mb 0.00 in0.0 mm 0.00 in0.0 mm 0.01 in0.3 mm
05:10 PM 73.8°F23.2°C 64.6°F18.1°C 73% 5.4 mph SE8.7 kmh SE 14.5 mph23.3 kmh 29.71 in1006.1 mb 0.00 in0.0 mm 0.00 in0.0 mm 0.01 in0.3 mm
05:20 PM 73.0°F22.8°C 63.1°F17.3°C 71% 6.9 mph S11.1 kmh S 13.0 mph20.9 kmh 29.72 in1006.4 mb 0.00 in0.0 mm 0.00 in0.0 mm 0.01 in0.3 mm
05:30 PM 73.9°F23.3°C 64.4°F18.0°C 72% 3.8 mph S6.1 kmh S 12.1 mph19.5 kmh 29.72 in1006.4 mb 0.00 in0.0 mm 0.00 in0.0 mm 0.01 in0.3 mm
05:40 PM 72.1°F22.3°C 62.6°F17.0°C 72% 3.8 mph SE6.1 kmh SE 9.8 mph15.8 kmh 29.73 in1006.8 mb 0.00 in0.0 mm 0.00 in0.0 mm 0.01 in0.3 mm
05:50 PM 70.3°F21.3°C 63.5°F17.5°C 79% 8.3 mph SE13.4 kmh SE 13.0 mph20.9 kmh 29.73 in1006.8 mb 0.00 in0.0 mm 0.00 in0.0 mm 0.01 in0.3 mm
06:00 PM 69.6°F20.9°C 63.9°F17.7°C 82% 2.2 mph SW3.5 kmh SW 9.8 mph15.8 kmh 29.73 in1006.8 mb 0.00 in0.0 mm 0.00 in0.0 mm 0.01 in0.3 mm
06:10 PM 69.4°F20.8°C 63.4°F17.4°C 81% 3.8 mph SE6.1 kmh SE 9.8 mph15.8 kmh 29.72 in1006.4 mb 0.00 in0.0 mm 0.00 in0.0 mm 0.01 in0.3 mm
06:20 PM 68.5°F20.3°C 62.9°F17.2°C 82% 3.8 mph SW6.1 kmh SW 8.3 mph13.4 kmh 29.72 in1006.4 mb 0.00 in0.0 mm 0.00 in0.0 mm 0.01 in0.3 mm
06:30 PM 68.4°F20.2°C 63.4°F17.4°C 84% 3.8 mph ENE6.1 kmh ENE 9.8 mph15.8 kmh 29.73 in1006.8 mb 0.00 in0.0 mm 0.00 in0.0 mm 0.01 in0.3 mm
06:40 PM 69.6°F20.9°C 64.3°F17.9°C 83% 3.8 mph SE6.1 kmh SE 9.8 mph15.8 kmh 29.73 in1006.8 mb 0.00 in0.0 mm 0.00 in0.0 mm 0.01 in0.3 mm
06:50 PM 68.9°F20.5°C 63.6°F17.6°C 83% 3.1 mph N5.0 kmh N 6.0 mph9.7 kmh 29.73 in1006.8 mb 0.00 in0.0 mm 0.00 in0.0 mm 0.01 in0.3 mm
07:00 PM 68.4°F20.2°C 63.0°F17.2°C 83% 4.5 mph SSW7.2 kmh SSW 6.9 mph11.1 kmh 29.73 in1006.8 mb 0.00 in0.0 mm 0.00 in0.0 mm 0.01 in0.3 mm
07:10 PM 68.2°F20.1°C 62.8°F17.1°C 83% 4.5 mph NE7.2 kmh NE 9.8 mph15.8 kmh 29.73 in1006.8 mb 0.00 in0.0 mm 0.00 in0.0 mm 0.01 in0.3 mm
07:20 PM 68.2°F20.1°C 63.2°F17.3°C 84% 1.6 mph ESE2.6 kmh ESE 8.3 mph13.4 kmh 29.73 in1006.8 mb 0.00 in0.0 mm 0.00 in0.0 mm 0.01 in0.3 mm
07:30 PM 68.0°F20.0°C 62.7°F17.1°C 83% 3.1 mph SE5.0 kmh SE 6.9 mph11.1 kmh 29.73 in1006.8 mb 0.00 in0.0 mm 0.00 in0.0 mm 0.01 in0.3 mm
07:40 PM 68.0°F20.0°C 63.0°F17.2°C 84% 0.7 mph ESE1.1 kmh ESE 6.9 mph11.1 kmh 29.73 in1006.8 mb 0.00 in0.0 mm 0.00 in0.0 mm 0.01 in0.3 mm
07:50 PM 68.0°F20.0°C 63.3°F17.4°C 85% 4.5 mph NNW7.2 kmh NNW 6.9 mph11.1 kmh 29.73 in1006.8 mb 0.00 in0.0 mm 0.00 in0.0 mm 0.01 in0.3 mm
08:00 PM 67.6°F19.8°C 63.7°F17.6°C 87% 5.4 mph NW8.7 kmh NW 7.6 mph12.2 kmh 29.73 in1006.8 mb 0.00 in0.0 mm 0.00 in0.0 mm 0.01 in0.3 mm
08:10 PM 66.9°F19.4°C 63.9°F17.7°C 90% 5.4 mph ESE8.7 kmh ESE 11.4 mph18.3 kmh 29.74 in1007.1 mb 0.01 in0.3 mm 0.06 in1.5 mm 0.02 in0.5 mm
08:20 PM 64.2°F17.9°C 61.6°F16.4°C 91% 1.6 mph SE2.6 kmh SE 7.6 mph12.2 kmh 29.75 in1007.5 mb 0.04 in1.0 mm 0.18 in4.6 mm 0.05 in1.3 mm
08:30 PM 64.2°F17.9°C 62.5°F16.9°C 94% 3.1 mph SE5.0 kmh SE 4.5 mph7.2 kmh 29.75 in1007.5 mb 0.05 in1.3 mm 0.06 in1.5 mm 0.06 in1.5 mm
08:40 PM 64.6°F18.1°C 64.0°F17.8°C 98% 0.7 mph SE1.1 kmh SE 4.5 mph7.2 kmh 29.75 in1007.5 mb 0.05 in1.3 mm 0.00 in0.0 mm 0.06 in1.5 mm
08:50 PM 64.8°F18.2°C 64.2°F17.9°C 98% 2.2 mph E3.5 kmh E 5.4 mph8.7 kmh 29.75 in1007.5 mb 0.05 in1.3 mm 0.00 in0.0 mm 0.06 in1.5 mm
09:00 PM 64.8°F18.2°C 64.2°F17.9°C 98% Calm Calm 4.5 mph7.2 kmh 29.75 in1007.5 mb 0.05 in1.3 mm 0.00 in0.0 mm 0.06 in1.5 mm
09:10 PM 64.8°F18.2°C 64.2°F17.9°C 98% 2.2 mph NE3.5 kmh NE 3.8 mph6.1 kmh 29.75 in1007.5 mb 0.04 in1.0 mm 0.00 in0.0 mm 0.06 in1.5 mm
09:20 PM 64.6°F18.1°C 64.0°F17.8°C 98% Calm Calm 3.8 mph6.1 kmh 29.75 in1007.5 mb 0.01 in0.3 mm 0.00 in0.0 mm 0.06 in1.5 mm
09:30 PM 64.6°F18.1°C 64.0°F17.8°C 98% Calm Calm 3.8 mph6.1 kmh 29.74 in1007.1 mb 0.00 in0.0 mm 0.00 in0.0 mm 0.06 in1.5 mm
09:40 PM 64.2°F17.9°C 63.4°F17.4°C 97% Calm Calm -- 29.75 in1007.5 mb 0.00 in0.0 mm 0.00 in0.0 mm 0.06 in1.5 mm
09:50 PM 64.2°F17.9°C 63.4°F17.4°C 97% Calm Calm -- 29.75 in1007.5 mb 0.00 in0.0 mm 0.00 in0.0 mm 0.06 in1.5 mm
10:00 PM 64.2°F17.9°C 63.4°F17.4°C 97% Calm Calm -- 29.74 in1007.1 mb 0.00 in0.0 mm 0.00 in0.0 mm 0.06 in1.5 mm
10:10 PM 64.2°F17.9°C 63.4°F17.4°C 97% Calm Calm -- 29.74 in1007.1 mb 0.00 in0.0 mm 0.00 in0.0 mm 0.06 in1.5 mm
10:20 PM 64.0°F17.8°C 63.2°F17.3°C 97% Calm Calm 3.1 mph5.0 kmh 29.74 in1007.1 mb 0.00 in0.0 mm 0.00 in0.0 mm 0.06 in1.5 mm
10:30 PM 63.9°F17.7°C 63.0°F17.2°C 97% Calm Calm -- 29.75 in1007.5 mb 0.00 in0.0 mm 0.00 in0.0 mm 0.06 in1.5 mm
10:40 PM 64.0°F17.8°C 63.2°F17.3°C 97% 2.2 mph W3.5 kmh W 3.8 mph6.1 kmh 29.75 in1007.5 mb 0.00 in0.0 mm 0.00 in0.0 mm 0.06 in1.5 mm
10:50 PM 63.9°F17.7°C 63.0°F17.2°C 97% Calm Calm 3.8 mph6.1 kmh 29.75 in1007.5 mb 0.00 in0.0 mm 0.00 in0.0 mm 0.06 in1.5 mm
11:00 PM 64.0°F17.8°C 63.2°F17.3°C 97% 0.7 mph N1.1 kmh N 3.1 mph5.0 kmh 29.75 in1007.5 mb 0.00 in0.0 mm 0.00 in0.0 mm 0.06 in1.5 mm
11:10 PM 64.0°F17.8°C 63.2°F17.3°C 97% 1.6 mph NNW2.6 kmh NNW 5.4 mph8.7 kmh 29.74 in1007.1 mb 0.00 in0.0 mm 0.00 in0.0 mm 0.06 in1.5 mm
11:20 PM 64.0°F17.8°C 63.2°F17.3°C 97% Calm Calm 4.5 mph7.2 kmh 29.74 in1007.1 mb 0.00 in0.0 mm 0.00 in0.0 mm 0.06 in1.5 mm
11:30 PM 64.0°F17.8°C 63.2°F17.3°C 97% Calm Calm 3.8 mph6.1 kmh 29.74 in1007.1 mb 0.00 in0.0 mm 0.00 in0.0 mm 0.06 in1.5 mm
11:40 PM 63.9°F17.7°C 63.0°F17.2°C 97% 1.6 mph NW2.6 kmh NW 3.8 mph6.1 kmh 29.73 in1006.8 mb 0.00 in0.0 mm 0.00 in0.0 mm 0.06 in1.5 mm
11:50 PM 63.9°F17.7°C 63.0°F17.2°C 97% 0.7 mph WNW1.1 kmh WNW 3.1 mph5.0 kmh 29.73 in1006.8 mb 0.00 in0.0 mm 0.00 in0.0 mm 0.06 in1.5 mm